Last 30 Days

Middletown-South

Daily Data | America/Los_Angeles
as of 10/16/21 11:26 PM PDT
Date Daily Max Temp (°F) Time of Max Temp Daily Min Temp (°F) Time of Min Temp Daily Rain (In) Monthly Rain (In) Seasonal Rainfall (In) Wind Spd (mph) Daily Max Wind (mph) Time of Max Wind Max Wind Dir (°) Dew Pt (°F) Max RH (%) Min RH (%) Hrs <= 32F (hrs) Hrs <= 28F (hrs) Daily Leaf Wet Hrs (hrs) Degree Hrs (hrs) Hrs 70-85F (hrs) Hrs > 95F (hrs) Powdery Mildew Stress (pts) Storm Total (In) Daily Max Rain Intensity (In/Hr) Time of Max Rain Intensity Max 1 Min Rain (In) Max 1 Min Rain Time Max 15 Min Rain (In) Max 15 Min Precip Time Max 60 Min Rain (In) GDDs (DL) Bat Volt Min Day (V)
10/15/21 84.9 1538 38.1 0528 0.00 0.00 0.13 1.5 8.1 1549 NE | 46 26.0 62 9 0.0 0.0 0.0 119.5 8.53 0.00 40 - - - - - - - - 11.9 12.6
10/14/21 77.6 1556 35.7 0737 0.00 0.00 0.13 2.2 17.2 1236 E | 79 27.2 89 10 0.0 0.0 0.0 64.6 6.24 0.00 20 - - - - - - - - 8.7 12.6
10/13/21 73.0 1615 38.6 0127 0.00 0.00 0.13 1.7 12.9 1416 NE | 41 32.2 88 16 0.0 0.0 0.0 33.1 3.69 0.00 0 - - - - - - - - 7.6 12.6
10/12/21 71.2 1659 39.4 0058 0.00 0.00 0.13 3.2 19.8 0358 NNE | 17 12.6 46 4 0.0 0.0 0.0 16.6 0.72 0.00 0 - - - - - - - - 6.3 12.6
10/11/21 67.3 1421 41.3 2240 0.00 0.00 0.13 4.2 23.6 1547 NNW | 337 19.2 48 9 0.0 0.0 0.0 1.7 0.00 0.00 10 - - - - - - - - 6.1 12.6
10/10/21 81.0 1522 38.3 0641 0.00 0.00 0.13 2.6 19.1 2228 N | 1 35.7 90 14 0.0 0.0 0.0 97.9 7.94 0.00 20 - - - - - - - - 13.1 12.6
10/9/21 76.3 1543 37.1 0649 0.00 0.00 0.13 1.6 11.4 1824 WSW | 242 36.6 89 20 0.0 0.0 0.0 50.1 5.09 0.00 0 - - - - - - - - 8.9 12.6
10/8/21 68.3 1532 36.5 0741 0.00 0.00 0.13 2.4 16.8 1930 SW | 226 37.1 93 23 0.0 0.0 1.8 5.1 0.00 0.00 0 - - - - - - - - 5.9 12.6
10/7/21 68.7 1339 41.5 0303 0.00 0.00 0.13 1.8 17.5 1526 WSW | 249 35.4 77 15 0.0 0.0 0.0 5.6 0.00 0.00 0 - - - - - - - - 6.5 12.6
10/6/21 72.6 1438 43.4 0057 0.00 0.00 0.13 2.1 17.3 1519 WSW | 248 37.6 78 6 0.0 0.0 0.0 21.8 1.06 0.00 10 - - - - - - - - 8.4 12.6
10/5/21 80.4 1312 43.4 0729 0.00 0.00 0.13 2.5 16.7 1808 SW | 225 32.7 62 10 0.0 0.0 0.0 74.6 6.87 0.00 20 - - - - - - - - 12.1 12.6
10/4/21 90.7 1506 44.8 0725 0.00 0.00 0.13 1.6 14.9 1422 SW | 224 30.0 67 8 0.0 0.0 0.0 194.2 2.16 0.00 0 - - - - - - - - 17.0 12.6
10/3/21 93.1 1542 48.3 0713 0.00 0.00 0.13 2.0 14.8 1733 SW | 228 37.8 67 13 0.0 0.0 0.0 236.3 2.28 0.00 10 - - - - - - - - 19.8 12.6
10/2/21 93.7 1519 47.5 0700 0.00 0.00 0.13 2.1 15.7 1755 SW | 230 35.8 67 10 0.0 0.0 0.0 247.5 3.20 0.00 20 - - - - - - - - 20.2 12.6
10/1/21 91.4 1548 44.9 0719 0.00 0.00 0.13 1.9 14.8 1842 W | 265 34.0 68 10 0.0 0.0 0.0 213.7 2.60 0.00 30 - - - - - - - - 17.9 12.6
9/30/21 91.9 1605 46.1 0527 0.00 0.13 0.13 1.8 14.6 1723 WSW | 250 31.8 66 7 0.0 0.0 0.0 204.4 3.23 0.00 40 - - - - - - - - 17.0 12.6
9/29/21 84.8 1555 38.6 0622 0.00 0.13 0.13 1.7 12.3 1336 SE | 132 33.3 86 9 0.0 0.0 0.0 119.2 8.34 0.00 50 - - - - - - - - 12.4 12.6
9/28/21 78.0 1512 41.6 0739 0.00 0.13 0.13 2.1 20.5 1221 ENE | 60 34.1 93 11 0.0 0.0 0.5 72.8 6.86 0.00 30 - - - - - - - - 10.0 12.6
9/27/21 71.1 1320 41.2 0719 0.01 0.13 0.13 2.9 20.3 1053 SSW | 212 47.4 91 48 0.0 0.0 2.1 21.1 0.76 0.00 10 - 0.01 1754 0.01 1755 0.01 1755 0.01 8.2 12.6
9/26/21 81.5 1246 41.1 0723 0.00 0.12 0.12 2.4 22.8 1417 S | 181 43.8 91 27 0.0 0.0 0.0 79.6 7.06 0.00 20 - - - - - - - - 11.2 12.6
9/25/21 86.6 1227 46.0 0625 0.00 0.12 0.12 2.0 15.7 1549 NNW | 334 40.3 69 16 0.0 0.0 0.0 155.2 4.74 0.00 0 - - - - - - - - 15.6 12.5
9/24/21 96.4 1330 51.5 0708 0.00 0.12 0.12 2.5 19.2 1552 W | 260 36.7 57 9 0.0 0.0 0.0 279.8 3.45 1.39 0 - - - - - - - - 23.3 12.6
9/23/21 96.4 1601 51.8 0518 0.00 0.12 0.12 2.1 13.9 1245 E | 88 37.5 67 8 0.0 0.0 0.0 268.8 1.42 1.26 0 - - - - - - - - 21.8 12.6
9/22/21 90.9 1447 50.4 0636 0.00 0.12 0.12 2.3 17.6 1340 SSW | 203 38.4 67 12 0.0 0.0 0.0 219.8 1.73 0.00 0 - - - - - - - - 19.9 12.6
9/21/21 96.9 1528 49.2 0636 0.00 0.12 0.12 2.1 12.5 1829 SW | 229 37.4 60 11 0.0 0.0 0.0 265.6 1.75 1.19 0 - - - - - - - - 21.5 12.6
9/20/21 91.3 1632 45.5 0622 0.00 0.12 0.12 2.6 14.4 0920 NE | 56 33.8 86 7 0.0 0.0 0.0 204.0 3.94 0.00 10 - - - - - - - - 17.7 12.6
9/19/21 80.0 1541 48.2 0630 0.01 0.12 0.12 2.2 12.3 1341 SW | 233 48.5 100 28 0.0 0.0 7.4 80.1 7.46 0.00 20 0.05 0.01 0216 0.01 0217 0.01 0217 0.01 12.2 12.6
9/18/21 64.0 1102 44.7 0542 0.04 0.11 0.11 3.2 20.6 1217 W | 279 52.5 95 64 0.0 0.0 8.2 0.0 0.00 0.00 0 - 0.03 2125 0.01 2018 0.01 2018 0.02 7.6 12.5
9/17/21 88.2 1427 47.4 0707 0.00 0.07 0.07 2.2 18.3 1841 W | 268 48.1 94 20 0.0 0.0 2.1 140.4 3.63 0.00 0 - - - - - - - - 14.8 12.6
9/16/21 88.0 1444 45.5 0658 0.00 0.07 0.07 1.5 12.6 1605 SSW | 211 47.0 91 21 0.0 0.0 0.0 145.2 3.70 0.00 0 - - - - - - - - 15.0 12.5
Max 96.9 - 51.8 - 0.04 0.13 - 4.2 23.6 - - 52.5 100 64 0.0 0.0 8.2 279.8 8.53 1.39 - - 0.03 - 0.01 - 0.01 - 0.02 23.3 12.6
Avg - - - - - 0.06 - 2.2 - - - 36.0 - - 0.0 0.0 - - 3.62 0.13 - - - - - - - - - 13.3 -
Min 64.0 - 35.7 - 0.00 0.00 - 1.5 8.1 - - 12.6 46 4 0.0 0.0 0.0 0.0 0.00 0.00 - - 0.01 - 0.01 - 0.01 - 0.01 5.9 12.5
Total - - - - - - - - - - - - - - 0.0 0.0 - - 108.45 3.85 - - - - - - - - - 398.5 -